createdAt,value
2017-08-29T00:00:39.075Z,99.99
2017-08-29T00:01:48.179Z,99.99
2017-08-29T00:02:57.356Z,99.99
2017-08-29T00:04:06.201Z,99.99
2017-08-29T00:05:15.047Z,99.99
2017-08-29T00:06:23.894Z,99.99
2017-08-29T00:07:33.076Z,99.99
2017-08-29T00:08:41.920Z,99.99
2017-08-29T00:09:50.765Z,99.99
2017-08-29T00:10:59.609Z,99.99
2017-08-29T00:12:08.455Z,99.99
2017-08-29T00:13:17.348Z,99.99
2017-08-29T00:14:26.194Z,99.99
2017-08-29T00:15:35.043Z,99.99
2017-08-29T00:16:43.889Z,99.99
2017-08-29T00:17:53.071Z,99.99
2017-08-29T00:19:01.912Z,99.99
2017-08-29T00:20:10.760Z,99.99
2017-08-29T00:21:19.601Z,99.99
2017-08-29T00:22:28.449Z,99.99
2017-08-29T00:23:37.294Z,99.99
2017-08-29T00:24:46.240Z,99.99
2017-08-29T00:25:55.086Z,99.99
2017-08-29T00:27:03.932Z,99.99
2017-08-29T00:28:12.784Z,99.99
2017-08-29T00:29:21.624Z,99.99
2017-08-29T00:30:30.618Z,99.99
2017-08-29T00:31:39.464Z,99.99
2017-08-29T00:32:48.309Z,99.99
2017-08-29T00:33:57.153Z,99.99
2017-08-29T00:35:06.004Z,99.99
2017-08-29T00:36:14.850Z,99.99
2017-08-29T00:37:24.029Z,99.99
2017-08-29T00:38:32.874Z,99.99
2017-08-29T00:39:41.720Z,99.99
2017-08-29T00:40:50.561Z,99.99
2017-08-29T00:41:59.456Z,99.99
2017-08-29T00:43:08.304Z,99.99
2017-08-29T00:44:17.151Z,99.99
2017-08-29T00:45:26.329Z,99.99
2017-08-29T00:46:35.172Z,99.99
2017-08-29T00:47:44.016Z,99.99
2017-08-29T00:48:52.864Z,99.99
2017-08-29T00:50:01.707Z,99.99
2017-08-29T00:51:10.552Z,99.99
2017-08-29T00:52:19.398Z,99.99
2017-08-29T00:53:28.391Z,99.99
2017-08-29T00:54:37.236Z,99.99
2017-08-29T00:55:46.086Z,99.99
2017-08-29T00:56:54.930Z,99.99
2017-08-29T00:58:04.115Z,99.99
2017-08-29T00:59:13.625Z,99.99
2017-08-29T01:00:22.470Z,99.99
2017-08-29T01:01:31.315Z,99.99
2017-08-29T01:02:40.159Z,99.99
2017-08-29T01:03:49.006Z,99.99
2017-08-29T01:04:58.002Z,99.99
2017-08-29T01:06:06.846Z,99.99
2017-08-29T01:07:15.692Z,99.99
2017-08-29T01:08:24.537Z,99.99
2017-08-29T01:09:33.384Z,99.99
2017-08-29T01:10:42.379Z,99.99
2017-08-29T01:11:51.225Z,99.99
2017-08-29T01:13:00.073Z,99.99
2017-08-29T01:14:08.923Z,99.99
2017-08-29T01:15:17.766Z,99.99
2017-08-29T01:16:26.760Z,99.99
2017-08-29T01:17:35.604Z,99.99
2017-08-29T01:18:44.449Z,99.99
2017-08-29T01:19:53.293Z,99.99
2017-08-29T01:21:02.137Z,99.99
2017-08-29T01:22:11.233Z,99.99
2017-08-29T01:23:20.078Z,99.99
2017-08-29T01:24:28.922Z,99.99
2017-08-29T01:25:37.771Z,99.99
2017-08-29T01:26:46.616Z,99.99
2017-08-29T01:27:55.560Z,99.99
2017-08-29T01:29:04.744Z,99.99
2017-08-29T01:30:13.590Z,99.99
2017-08-29T01:31:22.433Z,99.99
2017-08-29T01:32:31.278Z,99.99
2017-08-29T01:33:40.174Z,99.99
2017-08-29T01:34:49.017Z,99.99
2017-08-29T01:35:57.860Z,99.99
2017-08-29T01:37:06.704Z,99.99
2017-08-29T01:38:15.548Z,99.99
2017-08-29T01:39:24.397Z,99.99
2017-08-29T01:40:33.242Z,99.99
2017-08-29T01:41:42.088Z,99.99
2017-08-29T01:42:50.933Z,99.99
2017-08-29T01:43:59.776Z,99.99
2017-08-29T01:45:08.820Z,99.99
2017-08-29T01:46:17.665Z,99.99
2017-08-29T01:47:26.510Z,99.99
2017-08-29T01:48:35.354Z,99.99
2017-08-29T01:49:44.199Z,99.99
2017-08-29T01:50:53.426Z,99.99
2017-08-29T01:52:02.269Z,99.99
2017-08-29T01:53:11.115Z,99.99
2017-08-29T01:54:19.959Z,99.99
2017-08-29T01:55:28.802Z,99.99
2017-08-29T01:56:37.705Z,99.99
2017-08-29T01:57:46.544Z,99.99
2017-08-29T01:58:55.390Z,99.99
2017-08-29T02:00:04.236Z,99.99
2017-08-29T02:01:13.082Z,99.99
2017-08-29T02:02:22.127Z,99.99
2017-08-29T02:03:31.304Z,99.99
2017-08-29T02:04:40.485Z,99.99
2017-08-29T02:05:49.327Z,99.99
2017-08-29T02:06:58.169Z,99.99
2017-08-29T02:08:07.064Z,99.99
2017-08-29T02:09:15.909Z,99.99
2017-08-29T02:10:24.798Z,99.99
2017-08-29T02:11:33.601Z,99.99
2017-08-29T02:12:42.446Z,99.99
2017-08-29T02:13:51.292Z,99.99
2017-08-29T02:15:00.135Z,99.99
2017-08-29T02:16:08.980Z,99.99
2017-08-29T02:17:17.827Z,99.99
2017-08-29T02:18:27.000Z,99.99
2017-08-29T02:19:35.995Z,99.99
2017-08-29T02:20:44.839Z,99.99
2017-08-29T02:21:53.685Z,99.99
2017-08-29T02:23:02.533Z,99.99
2017-08-29T02:24:11.377Z,99.99
2017-08-29T02:25:20.322Z,99.99
2017-08-29T02:26:29.167Z,99.99
2017-08-29T02:27:38.013Z,99.99
2017-08-29T02:28:46.853Z,99.99
2017-08-29T02:29:55.698Z,99.99
2017-08-29T02:31:04.694Z,99.99
2017-08-29T02:32:13.545Z,99.99
2017-08-29T02:33:22.410Z,99.99
2017-08-29T02:34:31.237Z,99.99
2017-08-29T02:35:40.086Z,99.99
2017-08-29T02:36:49.316Z,99.99
2017-08-29T02:37:58.162Z,99.99
2017-08-29T02:39:07.008Z,99.99
2017-08-29T02:40:16.187Z,99.99
2017-08-29T02:41:25.030Z,99.99
2017-08-29T02:42:34.276Z,99.99
2017-08-29T02:43:43.121Z,99.99
2017-08-29T02:44:52.300Z,99.99
2017-08-29T02:46:01.144Z,99.99
2017-08-29T02:47:09.994Z,99.99
2017-08-29T02:48:19.041Z,99.99
2017-08-29T02:49:27.886Z,99.99
2017-08-29T02:50:36.734Z,99.99
2017-08-29T02:51:45.579Z,99.99
2017-08-29T02:52:54.425Z,99.99
2017-08-29T02:54:03.270Z,99.99
2017-08-29T02:55:12.118Z,99.99
2017-08-29T02:56:20.965Z,99.99
2017-08-29T02:57:29.806Z,99.99
2017-08-29T02:58:38.650Z,99.99
2017-08-29T02:59:47.646Z,99.99
2017-08-29T03:00:56.492Z,99.99
2017-08-29T03:02:05.337Z,99.99
2017-08-29T03:03:14.180Z,99.99
2017-08-29T03:04:23.026Z,99.99
2017-08-29T03:05:32.173Z,99.99
2017-08-29T03:06:41.018Z,99.99
2017-08-29T03:07:49.861Z,99.99
2017-08-29T03:08:58.707Z,99.99
2017-08-29T03:10:07.553Z,99.99
2017-08-29T03:11:16.550Z,99.99
2017-08-29T03:12:25.394Z,99.99
2017-08-29T03:13:34.243Z,99.99
2017-08-29T03:14:43.419Z,99.99
2017-08-29T03:15:52.262Z,99.99
2017-08-29T03:17:01.256Z,99.99
2017-08-29T03:18:10.105Z,99.99
2017-08-29T03:19:19.277Z,99.99
2017-08-29T03:20:28.120Z,99.99
2017-08-29T03:21:36.971Z,99.99
2017-08-29T03:22:45.811Z,99.99
2017-08-29T03:23:54.654Z,99.99
2017-08-29T03:25:03.499Z,99.99
2017-08-29T03:26:12.343Z,99.99
2017-08-29T03:27:21.187Z,99.99
2017-08-29T03:28:30.082Z,99.99
2017-08-29T03:29:38.928Z,99.99
2017-08-29T03:30:47.775Z,99.99
2017-08-29T03:31:56.618Z,99.99
2017-08-29T03:33:05.463Z,99.99
2017-08-29T03:34:14.411Z,99.99
2017-08-29T03:35:23.256Z,99.99
2017-08-29T03:36:32.100Z,99.99
2017-08-29T03:37:40.944Z,99.99
2017-08-29T03:38:49.789Z,99.99
2017-08-29T03:39:58.834Z,99.99
2017-08-29T03:41:07.679Z,99.99
2017-08-29T03:42:16.524Z,99.99
2017-08-29T03:43:25.368Z,99.99
2017-08-29T03:44:34.216Z,99.99
2017-08-29T03:45:43.162Z,99.99
2017-08-29T03:46:52.005Z,99.99
2017-08-29T03:48:00.849Z,99.99
2017-08-29T03:49:10.026Z,99.99
2017-08-29T03:50:19.207Z,99.99
2017-08-29T03:51:28.203Z,99.99
2017-08-29T03:52:37.049Z,99.99
2017-08-29T03:53:45.893Z,99.99
2017-08-29T03:54:54.737Z,99.99
2017-08-29T03:56:03.581Z,99.99
2017-08-29T03:57:12.577Z,99.99
2017-08-29T03:58:21.471Z,99.99
2017-08-29T03:59:30.315Z,99.99
2017-08-29T04:00:39.158Z,99.99
2017-08-29T04:01:48.002Z,99.99
2017-08-29T04:02:56.851Z,99.99
2017-08-29T04:04:05.694Z,99.99
2017-08-29T04:05:14.541Z,99.99
2017-08-29T04:06:23.384Z,99.99
2017-08-29T04:07:32.230Z,99.99
2017-08-29T04:08:41.173Z,99.99
2017-08-29T04:09:50.017Z,99.99
2017-08-29T04:10:58.863Z,99.99
2017-08-29T04:12:07.706Z,99.99
2017-08-29T04:13:16.553Z,99.99
2017-08-29T04:14:25.700Z,99.99
2017-08-29T04:15:34.547Z,99.99
2017-08-29T04:16:43.391Z,99.99
2017-08-29T04:17:52.235Z,99.99
2017-08-29T04:19:01.411Z,99.99
2017-08-29T04:20:10.403Z,99.99
2017-08-29T04:21:19.250Z,99.99
2017-08-29T04:22:28.097Z,99.99
2017-08-29T04:23:36.939Z,99.99
2017-08-29T04:24:45.781Z,99.99
2017-08-29T04:25:54.625Z,99.99
2017-08-29T04:27:03.471Z,99.99
2017-08-29T04:28:12.317Z,99.99
2017-08-29T04:29:21.162Z,99.99
2017-08-29T04:30:30.007Z,99.99
2017-08-29T04:31:39.003Z,99.99
2017-08-29T04:32:47.846Z,99.99
2017-08-29T04:33:56.693Z,99.99
2017-08-29T04:35:05.543Z,99.99
2017-08-29T04:36:14.379Z,99.99
2017-08-29T04:37:23.375Z,99.99
2017-08-29T04:38:32.221Z,99.99
2017-08-29T04:39:41.064Z,99.99
2017-08-29T04:40:49.909Z,99.99
2017-08-29T04:41:58.755Z,99.99
2017-08-29T04:43:07.651Z,99.99
2017-08-29T04:44:16.496Z,99.99
2017-08-29T04:45:25.340Z,99.99
2017-08-29T04:46:34.183Z,99.99
2017-08-29T04:47:43.027Z,99.99
2017-08-29T04:48:51.872Z,99.99
2017-08-29T04:50:01.048Z,99.99
2017-08-29T04:51:09.892Z,99.99
2017-08-29T04:52:18.734Z,99.99
2017-08-29T04:53:27.576Z,99.99
2017-08-29T04:54:36.573Z,99.99
2017-08-29T04:55:45.419Z,99.99
2017-08-29T04:56:54.264Z,99.99
2017-08-29T04:58:03.776Z,99.99
2017-08-29T04:59:12.621Z,99.99
2017-08-29T05:00:21.617Z,99.99
2017-08-29T05:01:30.464Z,99.99
2017-08-29T05:02:39.312Z,99.99
2017-08-29T05:03:48.158Z,99.99
2017-08-29T05:04:57.012Z,99.99
2017-08-29T05:06:06.347Z,99.99
2017-08-29T05:07:15.191Z,99.99
2017-08-29T05:08:24.034Z,99.99
2017-08-29T05:09:32.881Z,99.99
2017-08-29T05:10:41.741Z,99.99
2017-08-29T05:11:50.757Z,99.99
2017-08-29T05:12:59.582Z,99.99
2017-08-29T05:14:08.428Z,99.99
2017-08-29T05:15:17.276Z,99.99
2017-08-29T05:16:26.122Z,99.99
2017-08-29T05:17:35.019Z,99.99
2017-08-29T05:18:43.865Z,99.99
2017-08-29T05:19:52.708Z,99.99
2017-08-29T05:21:01.551Z,99.99
2017-08-29T05:22:10.797Z,99.99
2017-08-29T05:23:19.642Z,99.99
2017-08-29T05:24:28.486Z,99.99
2017-08-29T05:25:37.332Z,99.99
2017-08-29T05:26:46.176Z,99.99
2017-08-29T05:27:55.024Z,99.99
2017-08-29T05:29:03.873Z,99.99
2017-08-29T05:30:12.929Z,99.99
2017-08-29T05:31:21.772Z,99.99
2017-08-29T05:32:30.617Z,99.99
2017-08-29T05:33:39.465Z,99.99
2017-08-29T05:34:48.312Z,99.99
2017-08-29T05:35:57.165Z,99.99
2017-08-29T05:37:06.012Z,99.99
2017-08-29T05:38:14.858Z,99.99
2017-08-29T05:39:23.707Z,99.99
2017-08-29T05:40:32.553Z,99.99
2017-08-29T05:41:41.398Z,99.99
2017-08-29T05:42:50.244Z,99.99
2017-08-29T05:43:59.093Z,99.99
2017-08-29T05:45:08.275Z,99.99
2017-08-29T05:46:17.125Z,99.99
2017-08-29T05:47:25.975Z,99.99
2017-08-29T05:48:34.819Z,99.99
2017-08-29T05:49:43.663Z,99.99
2017-08-29T05:50:52.507Z,99.99
2017-08-29T05:52:01.354Z,99.99
2017-08-29T05:53:10.534Z,99.99
2017-08-29T05:54:19.681Z,99.99
2017-08-29T05:55:28.527Z,99.99
2017-08-29T05:56:37.370Z,99.99
2017-08-29T05:57:46.216Z,99.99
2017-08-29T05:58:55.062Z,99.99
2017-08-29T06:00:04.058Z,99.99
2017-08-29T06:01:12.903Z,99.99
2017-08-29T06:02:21.763Z,99.99
2017-08-29T06:03:30.595Z,99.99
2017-08-29T06:04:39.442Z,99.99
2017-08-29T06:05:48.439Z,99.99
2017-08-29T06:06:57.284Z,99.99
2017-08-29T06:08:06.131Z,99.99
2017-08-29T06:09:14.976Z,99.99
2017-08-29T06:10:23.822Z,99.99
2017-08-29T06:11:33.055Z,99.99
2017-08-29T06:12:41.897Z,99.99
2017-08-29T06:13:50.743Z,99.99
2017-08-29T06:14:59.590Z,99.99
2017-08-29T06:16:08.439Z,99.99
2017-08-29T06:17:17.441Z,99.99
2017-08-29T06:18:26.287Z,99.99
2017-08-29T06:19:35.133Z,99.99
2017-08-29T06:20:43.979Z,99.99
2017-08-29T06:21:52.827Z,99.99
2017-08-29T06:23:01.824Z,99.99
2017-08-29T06:24:10.672Z,99.99
2017-08-29T06:25:19.519Z,99.99
2017-08-29T06:26:28.367Z,99.99
2017-08-29T06:27:37.216Z,99.99
2017-08-29T06:28:46.161Z,99.99
2017-08-29T06:29:55.006Z,99.99
2017-08-29T06:31:03.856Z,99.99
2017-08-29T06:32:12.703Z,99.99
2017-08-29T06:33:21.602Z,99.99
2017-08-29T06:34:30.598Z,99.99
2017-08-29T06:35:39.443Z,99.99
2017-08-29T06:36:48.291Z,99.99
2017-08-29T06:37:57.140Z,99.99
2017-08-29T06:39:05.987Z,99.99
2017-08-29T06:40:15.319Z,99.99
2017-08-29T06:41:24.169Z,99.99
2017-08-29T06:42:33.017Z,99.99
2017-08-29T06:43:41.864Z,99.99
2017-08-29T06:44:50.719Z,99.99
2017-08-29T06:45:59.571Z,99.99
2017-08-29T06:47:08.749Z,99.99
2017-08-29T06:48:17.599Z,99.99
2017-08-29T06:49:26.456Z,99.99
2017-08-29T06:50:35.305Z,99.99
2017-08-29T06:51:44.203Z,99.99
2017-08-29T06:52:53.051Z,99.99
2017-08-29T06:54:01.900Z,99.99
2017-08-29T06:55:10.747Z,99.99
2017-08-29T06:56:19.598Z,99.99
2017-08-29T06:57:28.833Z,99.99
2017-08-29T06:58:38.024Z,99.99
2017-08-29T06:59:46.873Z,99.99
2017-08-29T07:00:55.720Z,99.99
2017-08-29T07:02:04.571Z,99.99
2017-08-29T07:03:13.470Z,99.99
2017-08-29T07:04:22.326Z,99.99
2017-08-29T07:05:31.174Z,99.99
2017-08-29T07:06:40.024Z,99.99
2017-08-29T07:07:48.874Z,99.99
2017-08-29T07:08:57.721Z,99.99
2017-08-29T07:10:06.571Z,99.99
2017-08-29T07:11:15.427Z,99.99
2017-08-29T07:12:24.276Z,99.99
2017-08-29T07:13:33.124Z,99.99
2017-08-29T07:14:42.439Z,99.99
2017-08-29T07:15:51.286Z,99.99
2017-08-29T07:17:00.135Z,99.99
2017-08-29T07:18:08.985Z,99.99
2017-08-29T07:19:17.835Z,99.99
2017-08-29T07:20:26.940Z,99.99
2017-08-29T07:21:36.141Z,99.99
2017-08-29T07:22:44.985Z,99.99
2017-08-29T07:23:53.835Z,99.99
2017-08-29T07:25:02.683Z,99.99
2017-08-29T07:26:11.702Z,99.99
2017-08-29T07:27:20.547Z,99.99
2017-08-29T07:28:29.399Z,99.99
2017-08-29T07:29:38.578Z,99.99
2017-08-29T07:30:47.426Z,99.99
2017-08-29T07:31:56.428Z,99.99
2017-08-29T07:33:05.616Z,99.99
2017-08-29T07:34:14.465Z,99.99
2017-08-29T07:35:23.314Z,99.99
2017-08-29T07:36:32.166Z,99.99
2017-08-29T07:37:41.122Z,99.99
2017-08-29T07:38:49.971Z,99.99
2017-08-29T07:39:58.821Z,99.99
2017-08-29T07:41:07.680Z,99.99
2017-08-29T07:42:16.546Z,99.99
2017-08-29T07:43:25.564Z,99.99
2017-08-29T07:44:34.412Z,99.99
2017-08-29T07:45:43.261Z,99.99
2017-08-29T07:46:52.119Z,99.99
2017-08-29T07:48:00.971Z,99.99
2017-08-29T07:49:09.932Z,99.99
2017-08-29T07:50:18.786Z,99.99
2017-08-29T07:51:27.649Z,99.99
2017-08-29T07:52:36.499Z,99.99
2017-08-29T07:53:45.351Z,99.99
2017-08-29T07:54:54.454Z,99.99
2017-08-29T07:56:03.323Z,99.99
2017-08-29T07:57:12.170Z,99.99
2017-08-29T07:58:21.022Z,99.99
2017-08-29T07:59:29.872Z,99.99
2017-08-29T08:00:38.893Z,99.99
2017-08-29T08:01:47.758Z,99.99
2017-08-29T08:02:56.608Z,99.99
2017-08-29T08:04:05.462Z,99.99
2017-08-29T08:05:14.314Z,99.99
2017-08-29T08:06:23.320Z,99.99
2017-08-29T08:07:32.503Z,99.99
2017-08-29T08:08:41.351Z,99.99
2017-08-29T08:09:50.199Z,99.99
2017-08-29T08:10:59.059Z,99.99
2017-08-29T08:12:08.070Z,99.99
2017-08-29T08:13:16.923Z,99.99
2017-08-29T08:14:25.773Z,99.99
2017-08-29T08:15:34.624Z,99.99
2017-08-29T08:16:43.473Z,99.99
2017-08-29T08:17:52.577Z,99.99
2017-08-29T08:19:01.428Z,99.99
2017-08-29T08:20:10.282Z,99.99
2017-08-29T08:21:19.139Z,99.99
2017-08-29T08:22:27.993Z,99.99
2017-08-29T08:23:37.145Z,99.99
2017-08-29T08:24:45.996Z,99.99
2017-08-29T08:25:54.848Z,99.99
2017-08-29T08:27:03.700Z,99.99
2017-08-29T08:28:12.553Z,99.99
2017-08-29T08:29:21.568Z,99.99
2017-08-29T08:30:30.425Z,99.99
2017-08-29T08:31:39.274Z,99.99
2017-08-29T08:32:48.129Z,99.99
2017-08-29T08:33:56.983Z,99.99
2017-08-29T08:35:06.136Z,99.99
2017-08-29T08:36:14.988Z,99.99
2017-08-29T08:37:24.176Z,99.99
2017-08-29T08:38:33.029Z,99.99
2017-08-29T08:39:41.881Z,99.99
2017-08-29T08:40:51.121Z,99.99
2017-08-29T08:41:59.994Z,99.99
2017-08-29T08:43:08.856Z,99.99
2017-08-29T08:44:17.710Z,99.99
2017-08-29T08:45:26.563Z,99.99
2017-08-29T08:46:35.743Z,99.99
2017-08-29T08:47:44.602Z,99.99
2017-08-29T08:48:53.550Z,99.99
2017-08-29T08:50:02.405Z,99.99
2017-08-29T08:51:11.605Z,99.99
2017-08-29T08:52:20.607Z,99.99
2017-08-29T08:53:29.464Z,99.99
2017-08-29T08:54:38.325Z,99.99
2017-08-29T08:55:47.178Z,99.99
2017-08-29T08:56:56.029Z,99.99
2017-08-29T08:58:04.939Z,99.99
2017-08-29T08:59:13.814Z,99.99
2017-08-29T09:00:22.730Z,99.99
2017-08-29T09:01:31.600Z,99.99
2017-08-29T09:02:40.499Z,99.99
2017-08-29T09:03:49.717Z,99.99
2017-08-29T09:04:58.667Z,99.99
2017-08-29T09:06:07.549Z,99.99
2017-08-29T09:07:16.479Z,99.99
2017-08-29T09:08:25.332Z,99.99
2017-08-29T09:09:34.286Z,99.99
2017-08-29T09:10:43.145Z,99.99
2017-08-29T09:11:51.998Z,99.99
2017-08-29T09:13:00.847Z,99.99
2017-08-29T09:14:09.699Z,99.99
2017-08-29T09:15:18.857Z,99.99
2017-08-29T09:16:27.773Z,99.99
2017-08-29T09:17:36.648Z,99.99
2017-08-29T09:18:45.502Z,99.99
2017-08-29T09:19:54.354Z,99.99
2017-08-29T09:21:03.306Z,99.99
2017-08-29T09:22:12.205Z,99.99
2017-08-29T09:23:21.078Z,99.99
2017-08-29T09:24:29.930Z,99.99
2017-08-29T09:25:38.784Z,99.99
2017-08-29T09:26:47.640Z,99.99
2017-08-29T09:27:56.544Z,99.99
2017-08-29T09:29:05.400Z,99.99
2017-08-29T09:30:14.257Z,99.99
2017-08-29T09:31:23.154Z,99.99
2017-08-29T09:32:32.177Z,99.99
2017-08-29T09:33:41.037Z,99.99
2017-08-29T09:34:49.956Z,99.99
2017-08-29T09:35:58.817Z,99.99
2017-08-29T09:37:07.691Z,99.99
2017-08-29T09:38:16.724Z,99.99
2017-08-29T09:39:25.598Z,99.99
2017-08-29T09:40:34.453Z,99.99
2017-08-29T09:41:43.312Z,99.99
2017-08-29T09:42:52.169Z,99.99
2017-08-29T09:44:01.322Z,99.99
2017-08-29T09:45:10.189Z,99.99
2017-08-29T09:46:19.088Z,99.99
2017-08-29T09:47:28.279Z,99.99
2017-08-29T09:48:37.132Z,99.99
2017-08-29T09:49:45.986Z,99.99
2017-08-29T09:50:54.859Z,99.99
2017-08-29T09:52:03.723Z,99.99
2017-08-29T09:53:12.587Z,99.99
2017-08-29T09:54:21.554Z,99.99
2017-08-29T09:55:30.688Z,99.99
2017-08-29T09:56:39.546Z,99.99
2017-08-29T09:57:48.416Z,99.99
2017-08-29T09:58:57.292Z,99.99
2017-08-29T10:00:06.145Z,99.99
2017-08-29T10:01:15.209Z,99.99
2017-08-29T10:02:24.088Z,99.99
2017-08-29T10:03:33.274Z,99.99
2017-08-29T10:04:42.133Z,99.99
2017-08-29T10:05:50.989Z,99.99
2017-08-29T10:06:59.891Z,99.99
2017-08-29T10:08:08.746Z,99.99
2017-08-29T10:09:17.601Z,99.99
2017-08-29T10:10:26.459Z,99.99
2017-08-29T10:11:35.312Z,99.99
2017-08-29T10:12:44.164Z,99.99
2017-08-29T10:13:53.019Z,99.99
2017-08-29T10:15:01.869Z,99.99
2017-08-29T10:16:10.745Z,99.99
2017-08-29T10:17:19.614Z,99.99
2017-08-29T10:18:28.630Z,99.99
2017-08-29T10:19:37.840Z,99.99
2017-08-29T10:20:46.693Z,99.99
2017-08-29T10:21:55.545Z,99.99
2017-08-29T10:23:04.406Z,99.99
2017-08-29T10:24:13.514Z,99.99
2017-08-29T10:25:22.392Z,99.99
2017-08-29T10:26:31.226Z,99.99
2017-08-29T10:27:40.082Z,99.99
2017-08-29T10:28:48.939Z,99.99
2017-08-29T10:29:57.842Z,99.99
2017-08-29T10:31:06.697Z,99.99
2017-08-29T10:32:15.554Z,99.99
2017-08-29T10:33:24.406Z,99.99
2017-08-29T10:34:33.271Z,99.99
2017-08-29T10:35:42.275Z,99.99
2017-08-29T10:36:51.168Z,99.99
2017-08-29T10:38:00.025Z,99.99
2017-08-29T10:39:08.878Z,99.99
2017-08-29T10:40:17.730Z,99.99
2017-08-29T10:41:26.685Z,99.99
2017-08-29T10:42:35.549Z,99.99
2017-08-29T10:43:44.409Z,99.99
2017-08-29T10:44:53.264Z,99.99
2017-08-29T10:46:02.118Z,99.99
2017-08-29T10:47:11.239Z,99.99
2017-08-29T10:48:20.110Z,99.99
2017-08-29T10:49:28.968Z,99.99
2017-08-29T10:50:37.846Z,99.99
2017-08-29T10:51:46.789Z,99.99
2017-08-29T10:52:56.137Z,99.99
2017-08-29T10:54:05.322Z,99.99
2017-08-29T10:55:14.231Z,99.99
2017-08-29T10:56:23.131Z,99.99
2017-08-29T10:57:32.206Z,99.99
2017-08-29T10:58:42.428Z,99.99
2017-08-29T10:59:51.482Z,99.99
2017-08-29T11:01:00.602Z,99.99
2017-08-29T11:02:10.149Z,99.99
2017-08-29T11:03:19.716Z,99.99
2017-08-29T11:04:28.897Z,99.99
2017-08-29T11:05:37.787Z,99.99
2017-08-29T11:06:46.642Z,98.1
2017-08-29T11:07:55.788Z,99.99
2017-08-29T11:09:04.839Z,98.78
2017-08-29T11:10:14.015Z,98.05
2017-08-29T11:11:23.263Z,97.67
2017-08-29T11:12:32.410Z,97.76
2017-08-29T11:13:41.607Z,99.12
2017-08-29T11:14:50.871Z,97.62
2017-08-29T11:16:00.041Z,97.76
2017-08-29T11:17:09.282Z,98.93
2017-08-29T11:18:18.314Z,96.41
2017-08-29T11:19:27.580Z,96.36
2017-08-29T11:20:37.055Z,95.58
2017-08-29T11:21:46.447Z,94.66
2017-08-29T11:22:55.677Z,95.34
2017-08-29T11:24:05.257Z,94.76
2017-08-29T11:25:14.744Z,95.73
2017-08-29T11:26:23.822Z,95.83
2017-08-29T11:27:33.018Z,94.95
2017-08-29T11:28:42.181Z,94.85
2017-08-29T11:29:51.591Z,94.08
2017-08-29T11:31:00.884Z,94.66
2017-08-29T11:32:09.990Z,94.47
2017-08-29T11:33:19.251Z,95
2017-08-29T11:34:28.410Z,93.93
2017-08-29T11:35:38.107Z,94.42
2017-08-29T11:36:47.231Z,94.61
2017-08-29T11:37:56.636Z,94.13
2017-08-29T11:39:06.038Z,94.9
2017-08-29T11:40:14.894Z,94.9
2017-08-29T11:41:23.748Z,94.81
2017-08-29T11:42:32.605Z,93.88
2017-08-29T11:43:41.460Z,96.55
2017-08-29T11:44:50.314Z,95.05
2017-08-29T11:45:59.167Z,93.74
2017-08-29T11:47:08.023Z,96.45
2017-08-29T11:48:16.885Z,94.95
2017-08-29T11:49:25.742Z,93.54
2017-08-29T11:50:34.898Z,94.42
2017-08-29T11:51:43.755Z,92.58
2017-08-29T11:52:52.616Z,92.19
2017-08-29T11:54:01.473Z,93.2
2017-08-29T11:55:10.327Z,92.52
2017-08-29T11:56:19.280Z,91.94
2017-08-29T11:57:28.140Z,92.04
2017-08-29T11:58:36.996Z,91.36
2017-08-29T11:59:45.851Z,90.68
2017-08-29T12:00:54.710Z,90.68
2017-08-29T12:02:03.627Z,91.75
2017-08-29T12:03:12.497Z,90.34
2017-08-29T12:04:21.466Z,90.44
2017-08-29T12:05:30.690Z,89.95
2017-08-29T12:06:39.564Z,89.66
2017-08-29T12:07:48.525Z,89.07
2017-08-29T12:08:57.388Z,90.09
2017-08-29T12:10:06.315Z,88.83
2017-08-29T12:11:15.176Z,89.9
2017-08-29T12:12:24.035Z,89.22
2017-08-29T12:13:33.230Z,89.7
2017-08-29T12:14:42.093Z,87.47
2017-08-29T12:15:50.955Z,88
2017-08-29T12:16:59.814Z,86.44
2017-08-29T12:18:08.673Z,87.41
2017-08-29T12:19:17.832Z,86.54
2017-08-29T12:20:26.697Z,86.64
2017-08-29T12:21:35.559Z,87.32
2017-08-29T12:22:44.423Z,87.41
2017-08-29T12:23:53.285Z,86.25
2017-08-29T12:25:02.445Z,87.61
2017-08-29T12:26:11.314Z,87.32
2017-08-29T12:27:20.174Z,86.74
2017-08-29T12:28:29.036Z,85.71
2017-08-29T12:29:37.897Z,86.39
2017-08-29T12:30:46.772Z,85.71
2017-08-29T12:31:55.646Z,84.93
2017-08-29T12:33:04.519Z,83.47
2017-08-29T12:34:13.379Z,85.32
2017-08-29T12:35:22.239Z,85.03
2017-08-29T12:36:32.417Z,82.6
2017-08-29T12:37:42.040Z,82.89
2017-08-29T12:38:50.902Z,82.15
2017-08-29T12:39:59.765Z,83.22
2017-08-29T12:41:08.627Z,83.22
2017-08-29T12:42:17.647Z,84.2
2017-08-29T12:43:26.511Z,83.03
2017-08-29T12:44:35.375Z,81.86
2017-08-29T12:45:44.235Z,81.86
2017-08-29T12:46:53.097Z,82.35
2017-08-29T12:48:02.118Z,83.12
2017-08-29T12:49:11.060Z,82.74
2017-08-29T12:50:19.929Z,83.61
2017-08-29T12:51:28.801Z,84.39
2017-08-29T12:52:37.739Z,83.32
2017-08-29T12:55:25.624Z,82.74
2017-08-29T12:56:34.707Z,82.84
2017-08-29T12:57:43.798Z,81.96
2017-08-29T12:58:52.897Z,83.42
2017-08-29T13:00:01.757Z,85.17
2017-08-29T13:01:10.619Z,84.2
2017-08-29T13:02:19.549Z,85.27
2017-08-29T13:03:28.413Z,82.84
2017-08-29T13:04:37.475Z,83.65
2017-08-29T13:05:46.336Z,83.26
2017-08-29T13:06:55.204Z,83.36
2017-08-29T13:08:04.082Z,83.46
2017-08-29T13:09:12.941Z,83.07
2017-08-29T13:10:21.852Z,82.39
2017-08-29T13:11:30.715Z,82.58
2017-08-29T13:12:39.635Z,82.97
2017-08-29T13:13:48.497Z,83.56
2017-08-29T13:14:57.357Z,82.49
2017-08-29T13:16:06.371Z,83.26
2017-08-29T13:17:15.276Z,83.85
2017-08-29T13:18:24.256Z,83.42
2017-08-29T13:19:33.501Z,83.12
2017-08-29T13:20:42.381Z,84.1
2017-08-29T13:21:51.662Z,83.32
2017-08-29T13:23:00.526Z,82.64
2017-08-29T13:24:09.400Z,82.39
2017-08-29T13:25:18.261Z,82.87
2017-08-29T13:26:27.123Z,83.07
2017-08-29T13:27:36.234Z,83.46
2017-08-29T13:28:45.091Z,82.68
2017-08-29T13:29:53.951Z,83.75
2017-08-29T13:31:02.811Z,81.51
2017-08-29T13:32:11.673Z,83.17
2017-08-29T13:33:20.633Z,81.71
2017-08-29T13:34:29.505Z,82.14
2017-08-29T13:35:38.365Z,81.07
2017-08-29T13:36:47.259Z,82.04
2017-08-29T13:37:56.121Z,82.04
2017-08-29T13:39:05.038Z,82.62
2017-08-29T13:40:13.903Z,83.11
2017-08-29T13:41:22.765Z,82.08
2017-08-29T13:42:31.626Z,80.04
2017-08-29T13:43:40.486Z,79.84
2017-08-29T13:44:49.596Z,78.67
2017-08-29T13:45:58.457Z,78.58
2017-08-29T13:47:07.316Z,78.81
2017-08-29T13:48:16.176Z,79.88
2017-08-29T13:49:25.041Z,80.17
2017-08-29T13:50:34.285Z,78.22
2017-08-29T13:51:43.148Z,79.24
2017-08-29T13:52:52.015Z,77.54
2017-08-29T13:54:00.877Z,77.54
2017-08-29T13:55:10.072Z,77.83
2017-08-29T13:56:19.237Z,80.11
2017-08-29T13:57:28.103Z,77.39
2017-08-29T13:58:37.320Z,77.78
2017-08-29T13:59:46.161Z,77.29
2017-08-29T14:00:55.028Z,76.84
2017-08-29T14:02:04.095Z,76.41
2017-08-29T14:03:12.957Z,75.86
2017-08-29T14:04:21.819Z,75.31
2017-08-29T14:05:30.684Z,75.9
2017-08-29T14:06:39.557Z,76.23
2017-08-29T14:07:48.473Z,74.48
2017-08-29T14:08:57.344Z,74.08
2017-08-29T14:10:06.260Z,72.19
2017-08-29T14:11:15.341Z,72.49
2017-08-29T14:12:24.214Z,73.27
2017-08-29T14:13:33.079Z,72.39
2017-08-29T14:14:41.946Z,72.52
2017-08-29T14:15:50.813Z,71.86
2017-08-29T14:16:59.679Z,74.05
2017-08-29T14:18:08.546Z,75.18
2017-08-29T14:19:17.565Z,74.17
2017-08-29T14:20:26.433Z,73.13
2017-08-29T14:21:35.567Z,73.07
2017-08-29T14:22:44.470Z,73.01
2017-08-29T14:23:53.336Z,72.85
2017-08-29T14:25:02.208Z,71.97
2017-08-29T14:26:11.075Z,71.42
2017-08-29T14:27:19.945Z,69.46
2017-08-29T14:28:28.984Z,69.85
2017-08-29T14:29:37.861Z,69.21
2017-08-29T14:30:46.781Z,69.79
2017-08-29T14:31:55.649Z,69.89
2017-08-29T14:33:04.518Z,69.37
2017-08-29T14:34:13.387Z,69.6
2017-08-29T14:35:22.254Z,68.91
2017-08-29T14:36:31.121Z,68.42
2017-08-29T14:37:39.990Z,68.23
2017-08-29T14:38:48.864Z,69.11
2017-08-29T14:39:58.033Z,68.62
2017-08-29T14:41:06.904Z,67.64
2017-08-29T14:42:15.774Z,67.83
2017-08-29T14:43:24.644Z,69.89
2017-08-29T14:44:33.518Z,69.79
2017-08-29T14:45:42.414Z,69.11
2017-08-29T14:46:51.530Z,68.23
2017-08-29T14:48:00.405Z,68.13
2017-08-29T14:49:09.274Z,68.91
2017-08-29T14:50:18.443Z,68.52